createdAt,value
2023-02-13T00:03:54.914Z,100.00
2023-02-13T00:07:57.346Z,100.00
2023-02-13T00:11:58.867Z,100.00
2023-02-13T00:16:01.995Z,100.00
2023-02-13T00:20:04.568Z,100.00
2023-02-13T00:24:06.267Z,100.00
2023-02-13T00:28:07.727Z,100.00
2023-02-13T00:32:09.437Z,100.00
2023-02-13T00:36:17.580Z,100.00
2023-02-13T00:40:19.731Z,100.00
2023-02-13T00:44:21.188Z,99.19
2023-02-13T00:48:22.657Z,97.23
2023-02-13T00:52:24.175Z,97.91
2023-02-13T00:56:25.635Z,96.48
2023-02-13T01:00:27.388Z,99.32
2023-02-13T01:04:29.046Z,98.63
2023-02-13T01:08:31.828Z,97.92
2023-02-13T01:12:33.270Z,97.55
2023-02-13T01:16:34.755Z,97.76
2023-02-13T01:20:36.183Z,96.06
2023-02-13T01:24:37.655Z,95.51
2023-02-13T01:28:39.168Z,95.29
2023-02-13T01:32:42.300Z,95.57
2023-02-13T01:36:43.777Z,93.96
2023-02-13T01:40:49.635Z,94.16
2023-02-13T01:44:54.088Z,93.55
2023-02-13T01:49:21.167Z,93.30
2023-02-13T01:53:48.452Z,91.42
2023-02-13T01:57:58.105Z,90.04
2023-02-13T02:02:01.177Z,90.60
2023-02-13T02:06:04.519Z,90.70
2023-02-13T02:10:10.189Z,88.79
2023-02-13T02:14:12.810Z,88.46
2023-02-13T02:18:24.471Z,89.04
2023-02-13T02:23:06.207Z,90.16
2023-02-13T02:27:17.786Z,90.34
2023-02-13T02:31:48.982Z,89.73
2023-02-13T02:36:14.817Z,90.04
2023-02-13T02:40:38.483Z,89.29
2023-02-13T02:44:55.679Z,90.45
2023-02-13T02:49:24.417Z,91.55
2023-02-13T02:53:33.406Z,91.60
2023-02-13T02:58:04.030Z,92.94
2023-02-13T03:02:26.939Z,93.11
2023-02-13T03:06:53.056Z,90.02
2023-02-13T03:11:13.269Z,92.03
2023-02-13T03:15:14.691Z,90.52
2023-02-13T03:19:46.152Z,90.07
2023-02-13T03:23:58.649Z,87.74
2023-02-13T03:28:36.025Z,87.13
2023-02-13T03:32:37.460Z,86.75
2023-02-13T03:37:29.585Z,87.65
2023-02-13T03:41:40.698Z,87.92
2023-02-13T03:45:53.653Z,87.72
2023-02-13T03:50:07.139Z,89.05
2023-02-13T03:54:18.395Z,89.38
2023-02-13T03:58:44.478Z,88.76
2023-02-13T04:03:00.695Z,88.34
2023-02-13T04:07:10.629Z,87.26
2023-02-13T04:11:19.593Z,88.39
2023-02-13T04:15:37.311Z,88.02
2023-02-13T04:19:39.057Z,86.07
2023-02-13T04:23:40.549Z,86.26
2023-02-13T04:27:42.239Z,88.89
2023-02-13T04:31:43.779Z,87.61
2023-02-13T04:35:45.409Z,86.68
2023-02-13T04:39:46.843Z,86.18
2023-02-13T04:43:48.885Z,85.47
2023-02-13T04:47:52.634Z,86.00
2023-02-13T04:51:54.087Z,86.40
2023-02-13T04:55:55.560Z,86.33
2023-02-13T04:59:57.074Z,85.25
2023-02-13T05:03:59.061Z,86.10
2023-02-13T05:08:01.299Z,84.92
2023-02-13T05:12:02.820Z,86.09
2023-02-13T05:16:04.824Z,87.58
2023-02-13T05:20:08.002Z,86.23
2023-02-13T05:24:10.320Z,87.57
2023-02-13T05:28:30.679Z,87.37
2023-02-13T05:32:32.207Z,88.90
2023-02-13T05:36:33.730Z,88.49
2023-02-13T05:40:35.181Z,89.41
2023-02-13T05:44:36.736Z,89.59
2023-02-13T05:48:38.408Z,89.16
2023-02-13T05:52:39.868Z,89.24
2023-02-13T05:56:41.573Z,88.56
2023-02-13T06:00:43.040Z,87.94
2023-02-13T06:04:44.461Z,86.21
2023-02-13T06:08:45.915Z,85.21
2023-02-13T06:12:47.319Z,86.31
2023-02-13T06:16:48.855Z,86.33
2023-02-13T06:20:50.567Z,87.25
2023-02-13T06:24:51.974Z,85.76
2023-02-13T06:28:53.413Z,84.56
2023-02-13T06:32:54.907Z,85.18
2023-02-13T06:36:56.832Z,84.86
2023-02-13T06:41:01.284Z,85.70
2023-02-13T06:45:03.485Z,87.12
2023-02-13T06:49:05.057Z,86.93
2023-02-13T06:53:06.552Z,88.22
2023-02-13T06:57:08.002Z,88.44
2023-02-13T07:01:09.548Z,87.87
2023-02-13T07:05:11.714Z,87.19
2023-02-13T07:09:13.542Z,86.00
2023-02-13T07:13:15.203Z,85.97
2023-02-13T07:17:16.654Z,85.11
2023-02-13T07:21:18.069Z,87.00
2023-02-13T07:25:19.567Z,87.16
2023-02-13T07:29:20.974Z,85.47
2023-02-13T07:33:22.633Z,86.63
2023-02-13T07:37:24.189Z,85.82
2023-02-13T07:41:26.840Z,86.19
2023-02-13T07:45:28.485Z,85.18
2023-02-13T07:49:29.927Z,83.42
2023-02-13T07:53:32.211Z,84.53
2023-02-13T07:57:34.152Z,84.35
2023-02-13T08:01:35.570Z,84.07
2023-02-13T08:05:37.220Z,84.62
2023-02-13T08:09:57.262Z,83.83
2023-02-13T08:13:58.708Z,85.21
2023-02-13T08:18:00.265Z,85.76
2023-02-13T08:22:01.789Z,86.78
2023-02-13T08:26:03.290Z,86.36
2023-02-13T08:30:06.799Z,86.02
2023-02-13T08:34:08.621Z,85.66
2023-02-13T08:38:10.077Z,87.26
2023-02-13T08:42:15.224Z,86.22
2023-02-13T08:46:18.181Z,85.33
2023-02-13T08:50:19.734Z,85.80
2023-02-13T08:54:21.178Z,85.71
2023-02-13T08:58:23.641Z,84.80
2023-02-13T09:02:25.083Z,84.89
2023-02-13T09:06:27.505Z,85.06
2023-02-13T09:10:29.650Z,85.44
2023-02-13T09:14:31.135Z,85.39
2023-02-13T09:18:33.462Z,86.65
2023-02-13T09:22:35.097Z,86.45
2023-02-13T09:26:36.695Z,87.22
2023-02-13T09:30:38.179Z,87.51
2023-02-13T09:34:39.682Z,86.91
2023-02-13T09:38:45.667Z,86.88
2023-02-13T09:42:49.300Z,87.28
2023-02-13T09:46:50.931Z,85.52
2023-02-13T09:50:52.423Z,85.40
2023-02-13T09:54:53.841Z,85.19
2023-02-13T09:59:02.829Z,85.10
2023-02-13T10:03:13.000Z,84.16
2023-02-13T10:07:39.368Z,84.57
2023-02-13T10:12:12.909Z,84.45
2023-02-13T10:16:45.488Z,84.59
2023-02-13T10:20:54.396Z,82.51
2023-02-13T10:25:24.979Z,84.00
2023-02-13T10:29:57.174Z,83.90
2023-02-13T10:34:02.840Z,83.38
2023-02-13T10:38:15.676Z,83.40
2023-02-13T10:42:40.070Z,82.06
2023-02-13T10:46:55.337Z,83.04
2023-02-13T10:51:07.549Z,82.25
2023-02-13T10:55:23.352Z,83.11
2023-02-13T10:59:36.743Z,82.51
2023-02-13T11:03:39.286Z,83.22
2023-02-13T11:07:42.327Z,81.14
2023-02-13T11:11:44.001Z,82.72
2023-02-13T11:16:13.742Z,83.96
2023-02-13T11:20:35.796Z,83.88
2023-02-13T11:24:41.431Z,82.67
2023-02-13T11:28:57.857Z,82.28
2023-02-13T11:33:01.514Z,82.89
2023-02-13T11:37:27.598Z,83.41
2023-02-13T11:41:30.907Z,82.68
2023-02-13T11:45:32.516Z,83.84
2023-02-13T11:49:36.835Z,84.61
2023-02-13T11:53:40.032Z,86.11
2023-02-13T11:57:41.481Z,87.22
2023-02-13T12:01:44.353Z,84.73
2023-02-13T12:06:03.036Z,87.12
2023-02-13T12:10:24.020Z,86.06
2023-02-13T12:14:31.374Z,85.10
2023-02-13T12:18:41.570Z,82.13
2023-02-13T12:23:02.973Z,82.86
2023-02-13T12:27:10.219Z,84.39
2023-02-13T12:31:27.848Z,82.40
2023-02-13T12:35:50.865Z,83.39
2023-02-13T12:40:02.675Z,84.25
2023-02-13T12:44:33.570Z,84.84
2023-02-13T12:48:49.983Z,86.27
2023-02-13T12:53:16.334Z,86.73
2023-02-13T12:57:56.073Z,85.71
2023-02-13T13:02:24.122Z,82.40
2023-02-13T13:06:43.843Z,81.19
2023-02-13T13:11:13.330Z,82.06
2023-02-13T13:15:35.078Z,81.00
2023-02-13T13:19:45.524Z,82.06
2023-02-13T13:24:01.013Z,82.48
2023-02-13T13:28:11.921Z,82.22
2023-02-13T13:32:18.816Z,80.51
2023-02-13T13:36:44.893Z,79.75
2023-02-13T13:40:53.619Z,78.81
2023-02-13T13:45:15.168Z,78.53
2023-02-13T13:49:35.442Z,78.31
2023-02-13T13:53:57.571Z,77.72
2023-02-13T13:58:00.288Z,77.32
2023-02-13T14:02:19.693Z,77.08
2023-02-13T14:06:48.007Z,75.81
2023-02-13T14:10:49.380Z,74.91
2023-02-13T14:14:55.374Z,75.60
2023-02-13T14:18:56.866Z,78.15
2023-02-13T14:23:26.971Z,77.16
2023-02-13T14:27:37.172Z,77.07
2023-02-13T14:31:51.942Z,77.20
2023-02-13T14:36:20.766Z,78.07
2023-02-13T14:40:22.346Z,78.60
2023-02-13T14:44:33.614Z,78.38
2023-02-13T14:48:45.952Z,77.18
2023-02-13T14:52:48.229Z,78.52
2023-02-13T14:56:51.723Z,78.22
2023-02-13T15:01:04.764Z,80.29
2023-02-13T15:05:14.937Z,80.92
2023-02-13T15:09:32.759Z,80.60
2023-02-13T15:13:37.447Z,83.15
2023-02-13T15:22:47.068Z,82.03
2023-02-13T15:27:03.032Z,82.17
2023-02-13T15:31:07.783Z,82.79
2023-02-13T15:35:27.292Z,84.46
2023-02-13T15:39:31.926Z,85.23
2023-02-13T15:43:44.739Z,86.26
2023-02-13T15:47:46.798Z,86.08
2023-02-13T15:51:57.749Z,87.01
2023-02-13T15:56:04.828Z,85.50
2023-02-13T16:00:07.539Z,86.36
2023-02-13T16:04:15.548Z,88.98
2023-02-13T16:08:30.958Z,89.87
2023-02-13T16:12:32.465Z,90.34
2023-02-13T16:16:43.938Z,90.18
2023-02-13T16:20:45.614Z,90.27
2023-02-13T16:24:53.616Z,90.31
2023-02-13T16:28:55.768Z,90.28
2023-02-13T16:33:15.611Z,90.87
2023-02-13T16:37:28.068Z,90.72
2023-02-13T16:41:31.805Z,90.39
2023-02-13T16:45:33.675Z,91.41
2023-02-13T16:49:36.867Z,90.96
2023-02-13T16:53:39.517Z,91.27
2023-02-13T16:57:43.347Z,91.02
2023-02-13T17:01:44.999Z,93.46
2023-02-13T17:05:46.495Z,91.87
2023-02-13T17:10:30.900Z,92.70
2023-02-13T17:14:32.327Z,92.58
2023-02-13T17:18:33.825Z,93.52
2023-02-13T17:22:38.138Z,94.28
2023-02-13T17:26:39.588Z,94.15
2023-02-13T17:30:41.898Z,94.88
2023-02-13T17:34:43.438Z,96.91
2023-02-13T17:38:44.876Z,98.17
2023-02-13T17:42:50.355Z,98.45
2023-02-13T17:46:51.814Z,98.90
2023-02-13T17:50:53.353Z,99.13
2023-02-13T17:54:54.874Z,99.19
2023-02-13T17:58:56.309Z,98.98
2023-02-13T18:03:00.408Z,97.61
2023-02-13T18:07:01.799Z,97.79
2023-02-13T18:11:09.608Z,96.30
2023-02-13T18:15:11.399Z,94.90
2023-02-13T18:19:13.921Z,94.17
2023-02-13T18:23:15.353Z,94.16
2023-02-13T18:27:17.467Z,93.02
2023-02-13T18:31:19.497Z,93.62
2023-02-13T18:35:22.550Z,93.34
2023-02-13T18:39:23.989Z,92.85
2023-02-13T18:43:25.546Z,90.49
2023-02-13T18:47:26.988Z,92.41
2023-02-13T18:51:28.415Z,94.10
2023-02-13T18:55:29.844Z,95.65
2023-02-13T18:59:31.293Z,94.89
2023-02-13T19:03:32.732Z,93.76
2023-02-13T19:07:34.196Z,96.21
2023-02-13T19:11:35.792Z,94.94
2023-02-13T19:15:37.316Z,94.28
2023-02-13T19:19:38.920Z,93.44
2023-02-13T19:23:41.172Z,95.45
2023-02-13T19:27:42.688Z,94.49
2023-02-13T19:31:44.243Z,95.42
2023-02-13T19:35:56.996Z,93.42
2023-02-13T19:39:58.482Z,93.49
2023-02-13T19:44:00.918Z,93.04
2023-02-13T19:48:02.431Z,93.08
2023-02-13T19:52:03.902Z,92.49
2023-02-13T19:56:06.961Z,92.48
2023-02-13T20:00:09.453Z,91.92
2023-02-13T20:04:14.267Z,92.51
2023-02-13T20:08:15.673Z,93.23
2023-02-13T20:12:17.172Z,91.39
2023-02-13T20:16:18.817Z,91.77
2023-02-13T20:20:20.430Z,92.78
2023-02-13T20:24:21.955Z,92.81
2023-02-13T20:28:23.360Z,91.77
2023-02-13T20:32:24.818Z,93.56
2023-02-13T20:36:29.659Z,92.67
2023-02-13T20:40:31.264Z,94.30
2023-02-13T20:44:32.814Z,97.48
2023-02-13T20:48:39.149Z,97.76
2023-02-13T20:52:40.728Z,96.76
2023-02-13T20:56:42.165Z,97.37
2023-02-13T21:00:43.671Z,98.99
2023-02-13T21:04:45.281Z,98.05
2023-02-13T21:08:47.006Z,98.65
2023-02-13T21:12:48.428Z,98.61
2023-02-13T21:16:49.936Z,95.48
2023-02-13T21:20:51.506Z,95.07
2023-02-13T21:24:53.067Z,95.56
2023-02-13T21:28:54.958Z,97.17
2023-02-13T21:32:56.371Z,95.26
2023-02-13T21:36:57.768Z,95.71
2023-02-13T21:41:17.481Z,95.89
2023-02-13T21:45:19.055Z,95.97
2023-02-13T21:49:20.634Z,98.58
2023-02-13T21:53:22.122Z,96.58
2023-02-13T21:57:23.627Z,96.24
2023-02-13T22:01:27.814Z,96.53
2023-02-13T22:05:29.254Z,96.59
2023-02-13T22:09:30.818Z,96.79
2023-02-13T22:13:32.226Z,96.65
2023-02-13T22:17:36.693Z,96.80
2023-02-13T22:21:38.173Z,96.91
2023-02-13T22:25:39.595Z,97.94
2023-02-13T22:29:41.007Z,96.49
2023-02-13T22:33:47.428Z,95.48
2023-02-13T22:37:51.259Z,94.67
2023-02-13T22:41:55.782Z,95.49
2023-02-13T22:46:05.979Z,95.85
2023-02-13T22:50:08.025Z,96.93
2023-02-13T22:54:10.270Z,95.22
2023-02-13T22:58:11.916Z,95.00
2023-02-13T23:02:13.376Z,92.21
2023-02-13T23:06:15.876Z,91.34
2023-02-13T23:10:18.912Z,91.08
2023-02-13T23:14:24.672Z,95.63
2023-02-13T23:18:26.111Z,96.83
2023-02-13T23:22:27.545Z,96.58
2023-02-13T23:26:28.982Z,97.41
2023-02-13T23:30:30.976Z,98.15
2023-02-13T23:34:35.112Z,98.92
2023-02-13T23:38:36.938Z,99.05
2023-02-13T23:42:46.099Z,96.09
2023-02-13T23:46:47.780Z,91.98
2023-02-13T23:50:51.016Z,89.51
2023-02-13T23:54:52.450Z,91.11
2023-02-13T23:58:56.528Z,91.62
